sensor_id;sensor_type;location;lat;lon;timestamp;pressure;altitude;pressure_sealevel;temperature;humidity
63700;BME280;49845;47.130;142.766;2023-01-28T00:01:34;99301.59;;;-16.57;70.89
63700;BME280;49845;47.130;142.766;2023-01-28T00:04:05;99236.97;;;-16.74;70.89
63700;BME280;49845;47.130;142.766;2023-01-28T00:06:37;99298.66;;;-16.05;70.66
63700;BME280;49845;47.130;142.766;2023-01-28T00:09:08;99293.88;;;-15.79;70.53
63700;BME280;49845;47.130;142.766;2023-01-28T00:11:38;99288.81;;;-15.55;70.67
63700;BME280;49845;47.130;142.766;2023-01-28T00:14:10;99176.16;;;-16.04;70.37
63700;BME280;49845;47.130;142.766;2023-01-28T00:16:41;99283.75;;;-15.20;70.22
63700;BME280;49845;47.130;142.766;2023-01-28T00:19:11;99288.06;;;-14.94;70.31
63700;BME280;49845;47.130;142.766;2023-01-28T00:21:43;99264.28;;;-14.87;70.24
63700;BME280;49845;47.130;142.766;2023-01-28T00:24:14;99290.91;;;-14.51;69.90
63700;BME280;49845;47.130;142.766;2023-01-28T00:26:44;99282.72;;;-14.35;69.58
63700;BME280;49845;47.130;142.766;2023-01-28T00:29:15;99276.50;;;-14.28;69.02
63700;BME280;49845;47.130;142.766;2023-01-28T00:31:45;99241.72;;;-14.36;68.81
63700;BME280;49845;47.130;142.766;2023-01-28T00:34:16;99275.56;;;-13.91;68.66
63700;BME280;49845;47.130;142.766;2023-01-28T00:36:49;99282.34;;;-13.76;68.76
63700;BME280;49845;47.130;142.766;2023-01-28T00:39:25;99274.81;;;-13.63;67.91
63700;BME280;49845;47.130;142.766;2023-01-28T00:41:56;99288.94;;;-13.65;67.31
63700;BME280;49845;47.130;142.766;2023-01-28T00:44:26;99258.19;;;-14.14;65.56
63700;BME280;49845;47.130;142.766;2023-01-28T00:46:57;99286.34;;;-14.31;64.70
63700;BME280;49845;47.130;142.766;2023-01-28T00:49:28;99284.31;;;-14.24;64.38
63700;BME280;49845;47.130;142.766;2023-01-28T00:52:00;99280.75;;;-14.27;63.00
63700;BME280;49845;47.130;142.766;2023-01-28T00:54:31;99282.47;;;-14.26;61.85
63700;BME280;49845;47.130;142.766;2023-01-28T00:57:01;99278.06;;;-14.17;61.39
63700;BME280;49845;47.130;142.766;2023-01-28T00:59:32;99259.72;;;-14.03;61.70
63700;BME280;49845;47.130;142.766;2023-01-28T01:02:02;99272.72;;;-13.70;61.98
63700;BME280;49845;47.130;142.766;2023-01-28T01:04:41;99267.97;;;-13.24;62.70
63700;BME280;49845;47.130;142.766;2023-01-28T01:07:25;99257.25;;;-12.93;62.87
63700;BME280;49845;47.130;142.766;2023-01-28T01:10:01;99254.34;;;-12.86;62.09
63700;BME280;49845;47.130;142.766;2023-01-28T01:12:31;99249.31;;;-12.86;61.98
63700;BME280;49845;47.130;142.766;2023-01-28T01:15:02;99223.41;;;-12.98;61.74
63700;BME280;49845;47.130;142.766;2023-01-28T01:17:36;99251.97;;;-12.70;61.94
63700;BME280;49845;47.130;142.766;2023-01-28T01:20:10;99267.69;;;-12.59;61.79
63700;BME280;49845;47.130;142.766;2023-01-28T01:22:43;99240.34;;;-12.38;61.61
63700;BME280;49845;47.130;142.766;2023-01-28T01:25:15;99195.06;;;-12.68;60.76
63700;BME280;49845;47.130;142.766;2023-01-28T01:27:48;99158.03;;;-12.98;60.53
63700;BME280;49845;47.130;142.766;2023-01-28T01:30:19;99217.97;;;-12.48;60.37
63700;BME280;49845;47.130;142.766;2023-01-28T01:32:49;99216.25;;;-12.49;60.39
63700;BME280;49845;47.130;142.766;2023-01-28T01:35:20;99208.94;;;-12.60;60.21
63700;BME280;49845;47.130;142.766;2023-01-28T01:37:52;99213.13;;;-12.45;60.56
63700;BME280;49845;47.130;142.766;2023-01-28T01:40:22;99211.28;;;-12.33;60.66
63700;BME280;49845;47.130;142.766;2023-01-28T01:42:53;99203.94;;;-12.15;60.85
63700;BME280;49845;47.130;142.766;2023-01-28T01:45:23;99197.81;;;-12.04;60.21
63700;BME280;49845;47.130;142.766;2023-01-28T01:47:58;99200.28;;;-12.05;59.30
63700;BME280;49845;47.130;142.766;2023-01-28T01:50:34;99171.00;;;-12.18;58.71
63700;BME280;49845;47.130;142.766;2023-01-28T01:53:10;99177.53;;;-12.22;58.81
63700;BME280;49845;47.130;142.766;2023-01-28T01:55:46;99177.34;;;-12.10;59.13
63700;BME280;49845;47.130;142.766;2023-01-28T01:58:20;99169.69;;;-12.11;58.28
63700;BME280;49845;47.130;142.766;2023-01-28T02:00:53;99170.13;;;-12.19;58.29
63700;BME280;49845;47.130;142.766;2023-01-28T02:03:28;99167.63;;;-12.19;58.09
63700;BME280;49845;47.130;142.766;2023-01-28T02:06:01;99163.25;;;-12.06;58.21
63700;BME280;49845;47.130;142.766;2023-01-28T02:08:33;99161.19;;;-12.13;56.38
63700;BME280;49845;47.130;142.766;2023-01-28T02:11:05;99118.34;;;-12.30;57.27
63700;BME280;49845;47.130;142.766;2023-01-28T02:13:39;99118.53;;;-12.10;56.53
63700;BME280;49845;47.130;142.766;2023-01-28T02:16:14;99152.94;;;-11.80;55.18
63700;BME280;49845;47.130;142.766;2023-01-28T02:18:44;99151.84;;;-11.68;54.94
63700;BME280;49845;47.130;142.766;2023-01-28T02:21:49;99147.13;;;-11.62;55.07
63700;BME280;49845;47.130;142.766;2023-01-28T02:24:50;99125.00;;;-11.52;55.09
63700;BME280;49845;47.130;142.766;2023-01-28T02:27:33;99064.28;;;-12.05;53.88
63700;BME280;49845;47.130;142.766;2023-01-28T02:30:12;99124.31;;;-11.49;54.39
63700;BME280;49845;47.130;142.766;2023-01-28T02:32:49;99127.63;;;-11.34;54.33
63700;BME280;49845;47.130;142.766;2023-01-28T02:35:28;99113.13;;;-11.38;53.26
63700;BME280;49845;47.130;142.766;2023-01-28T02:38:07;99114.06;;;-11.52;52.51
63700;BME280;49845;47.130;142.766;2023-01-28T02:40:42;99104.09;;;-11.82;51.28
63700;BME280;49845;47.130;142.766;2023-01-28T02:43:33;99071.19;;;-12.01;51.88
63700;BME280;49845;47.130;142.766;2023-01-28T02:46:12;99107.56;;;-11.80;51.57
63700;BME280;49845;47.130;142.766;2023-01-28T02:49:00;99103.19;;;-11.67;51.94
63700;BME280;49845;47.130;142.766;2023-01-28T02:54:38;99081.28;;;-11.36;50.33
63700;BME280;49845;47.130;142.766;2023-01-28T02:57:17;99068.69;;;-11.52;50.09
63700;BME280;49845;47.130;142.766;2023-01-28T02:59:56;99049.16;;;-11.40;49.87
63700;BME280;49845;47.130;142.766;2023-01-28T03:02:34;99082.22;;;-11.17;49.25
63700;BME280;49845;47.130;142.766;2023-01-28T03:05:10;99084.56;;;-11.04;46.38
63700;BME280;49845;47.130;142.766;2023-01-28T03:07:44;99086.75;;;-10.94;45.64
63700;BME280;49845;47.130;142.766;2023-01-28T03:10:17;99078.56;;;-10.90;44.13
63700;BME280;49845;47.130;142.766;2023-01-28T03:12:49;99067.63;;;-10.72;46.12
63700;BME280;49845;47.130;142.766;2023-01-28T03:15:37;99065.47;;;-10.65;46.13
63700;BME280;49845;47.130;142.766;2023-01-28T03:18:29;99049.16;;;-10.71;46.78
63700;BME280;49845;47.130;142.766;2023-01-28T03:21:21;99058.00;;;-10.63;45.69
63700;BME280;49845;47.130;142.766;2023-01-28T03:24:14;99051.41;;;-10.59;44.34
63700;BME280;49845;47.130;142.766;2023-01-28T03:27:08;99050.56;;;-10.60;44.98
63700;BME280;49845;47.130;142.766;2023-01-28T03:29:59;99038.50;;;-10.48;45.70
63700;BME280;49845;47.130;142.766;2023-01-28T03:32:48;99034.09;;;-10.52;46.24
63700;BME280;49845;47.130;142.766;2023-01-28T03:35:39;99026.28;;;-10.38;45.70
63700;BME280;49845;47.130;142.766;2023-01-28T03:38:26;98991.03;;;-10.55;46.20
63700;BME280;49845;47.130;142.766;2023-01-28T03:41:10;99021.28;;;-10.19;45.78
63700;BME280;49845;47.130;142.766;2023-01-28T03:43:41;99015.69;;;-10.12;45.63
63700;BME280;49845;47.130;142.766;2023-01-28T03:46:12;99015.00;;;-10.27;45.58
63700;BME280;49845;47.130;142.766;2023-01-28T03:48:43;99016.09;;;-10.22;45.71
63700;BME280;49845;47.130;142.766;2023-01-28T03:51:16;98970.91;;;-10.35;45.73
63700;BME280;49845;47.130;142.766;2023-01-28T03:53:46;99009.56;;;-10.17;43.92
63700;BME280;49845;47.130;142.766;2023-01-28T03:56:17;99001.56;;;-10.26;43.47
63700;BME280;49845;47.130;142.766;2023-01-28T03:58:52;98998.81;;;-10.32;43.66
63700;BME280;49845;47.130;142.766;2023-01-28T04:01:24;99003.72;;;-10.35;43.83
63700;BME280;49845;47.130;142.766;2023-01-28T04:03:58;98995.34;;;-10.34;45.26
63700;BME280;49845;47.130;142.766;2023-01-28T04:06:30;98995.75;;;-10.25;45.27
63700;BME280;49845;47.130;142.766;2023-01-28T04:09:00;98993.22;;;-10.25;44.96
63700;BME280;49845;47.130;142.766;2023-01-28T04:11:42;98992.75;;;-10.36;44.69
63700;BME280;49845;47.130;142.766;2023-01-28T04:14:13;98997.06;;;-10.33;44.91
63700;BME280;49845;47.130;142.766;2023-01-28T04:16:43;98979.63;;;-10.47;44.77
63700;BME280;49845;47.130;142.766;2023-01-28T04:19:14;98983.97;;;-10.44;42.96
63700;BME280;49845;47.130;142.766;2023-01-28T04:21:47;98987.84;;;-10.51;44.18
63700;BME280;49845;47.130;142.766;2023-01-28T04:24:17;98901.50;;;-10.99;43.06
63700;BME280;49845;47.130;142.766;2023-01-28T04:26:50;98982.66;;;-10.54;43.86
63700;BME280;49845;47.130;142.766;2023-01-28T04:29:23;98949.66;;;-10.76;44.10
63700;BME280;49845;47.130;142.766;2023-01-28T04:31:53;98983.91;;;-10.46;45.20
63700;BME280;49845;47.130;142.766;2023-01-28T04:34:24;98987.84;;;-10.51;45.44
63700;BME280;49845;47.130;142.766;2023-01-28T04:36:56;98986.25;;;-10.49;45.63
63700;BME280;49845;47.130;142.766;2023-01-28T04:39:26;98982.78;;;-10.51;45.52
63700;BME280;49845;47.130;142.766;2023-01-28T04:41:57;98988.00;;;-10.48;45.21
63700;BME280;49845;47.130;142.766;2023-01-28T04:44:29;98982.38;;;-10.42;44.95
63700;BME280;49845;47.130;142.766;2023-01-28T04:46:59;98980.06;;;-10.37;45.15
63700;BME280;49845;47.130;142.766;2023-01-28T04:49:30;98978.59;;;-10.32;45.26
63700;BME280;49845;47.130;142.766;2023-01-28T04:52:02;98980.19;;;-10.34;45.15
63700;BME280;49845;47.130;142.766;2023-01-28T04:54:32;98966.38;;;-10.43;45.42
63700;BME280;49845;47.130;142.766;2023-01-28T04:57:03;98977.59;;;-10.36;45.16
63700;BME280;49845;47.130;142.766;2023-01-28T04:59:34;98983.31;;;-10.40;45.48
63700;BME280;49845;47.130;142.766;2023-01-28T05:02:04;98974.88;;;-10.58;44.60
63700;BME280;49845;47.130;142.766;2023-01-28T05:04:35;98978.22;;;-10.59;45.54
63700;BME280;49845;47.130;142.766;2023-01-28T05:07:07;98972.44;;;-10.57;46.18
63700;BME280;49845;47.130;142.766;2023-01-28T05:09:37;98968.47;;;-10.52;46.04
63700;BME280;49845;47.130;142.766;2023-01-28T05:12:08;98970.41;;;-10.64;46.06
63700;BME280;49845;47.130;142.766;2023-01-28T05:14:38;98951.22;;;-10.78;46.66
63700;BME280;49845;47.130;142.766;2023-01-28T05:17:09;98963.06;;;-10.77;46.80
63700;BME280;49845;47.130;142.766;2023-01-28T05:19:42;98952.69;;;-10.83;47.69
63700;BME280;49845;47.130;142.766;2023-01-28T05:22:22;98963.28;;;-10.91;48.10
63700;BME280;49845;47.130;142.766;2023-01-28T05:25:01;98969.75;;;-10.96;48.13
63700;BME280;49845;47.130;142.766;2023-01-28T05:27:39;98972.00;;;-11.02;48.45
63700;BME280;49845;47.130;142.766;2023-01-28T05:30:15;98972.84;;;-11.01;48.60
63700;BME280;49845;47.130;142.766;2023-01-28T05:32:55;98971.72;;;-11.08;48.71
63700;BME280;49845;47.130;142.766;2023-01-28T05:35:32;98967.38;;;-11.11;49.39
63700;BME280;49845;47.130;142.766;2023-01-28T05:38:07;98969.50;;;-11.18;49.57
63700;BME280;49845;47.130;142.766;2023-01-28T05:40:42;98965.03;;;-11.24;49.79
63700;BME280;49845;47.130;142.766;2023-01-28T05:43:14;98952.06;;;-11.32;50.24
63700;BME280;49845;47.130;142.766;2023-01-28T05:45:47;98960.72;;;-11.26;50.79
63700;BME280;49845;47.130;142.766;2023-01-28T05:48:20;98963.72;;;-11.34;50.75
63700;BME280;49845;47.130;142.766;2023-01-28T05:50:53;98968.63;;;-11.37;50.90
63700;BME280;49845;47.130;142.766;2023-01-28T05:53:28;98970.34;;;-11.36;51.15
63700;BME280;49845;47.130;142.766;2023-01-28T05:56:02;98972.38;;;-11.29;51.64
63700;BME280;49845;47.130;142.766;2023-01-28T05:58:34;98974.28;;;-11.24;51.89
63700;BME280;49845;47.130;142.766;2023-01-28T06:01:08;98976.00;;;-11.23;51.79
63700;BME280;49845;47.130;142.766;2023-01-28T06:03:40;98902.84;;;-11.76;51.80
63700;BME280;49845;47.130;142.766;2023-01-28T06:06:13;98974.63;;;-11.51;51.91
63700;BME280;49845;47.130;142.766;2023-01-28T06:08:48;98938.63;;;-11.83;52.03
63700;BME280;49845;47.130;142.766;2023-01-28T06:11:20;98920.03;;;-12.03;52.18
63700;BME280;49845;47.130;142.766;2023-01-28T06:13:54;98976.56;;;-11.80;52.29
63700;BME280;49845;47.130;142.766;2023-01-28T06:16:27;98973.59;;;-11.89;52.41
63700;BME280;49845;47.130;142.766;2023-01-28T06:19:00;98975.50;;;-12.01;52.87
63700;BME280;49845;47.130;142.766;2023-01-28T06:21:37;98979.75;;;-12.00;52.97
63700;BME280;49845;47.130;142.766;2023-01-28T06:24:14;98984.16;;;-12.12;53.14
63700;BME280;49845;47.130;142.766;2023-01-28T06:26:47;98980.69;;;-12.14;53.77
63700;BME280;49845;47.130;142.766;2023-01-28T06:29:22;98988.25;;;-12.14;54.20
63700;BME280;49845;47.130;142.766;2023-01-28T06:31:57;98983.97;;;-12.16;54.56
63700;BME280;49845;47.130;142.766;2023-01-28T06:34:32;98985.06;;;-12.10;54.54
63700;BME280;49845;47.130;142.766;2023-01-28T06:37:07;98995.16;;;-12.10;54.79
63700;BME280;49845;47.130;142.766;2023-01-28T06:39:44;98982.09;;;-12.03;54.94
63700;BME280;49845;47.130;142.766;2023-01-28T06:42:19;98984.47;;;-11.90;55.98
63700;BME280;49845;47.130;142.766;2023-01-28T06:44:54;98981.28;;;-11.86;56.64
63700;BME280;49845;47.130;142.766;2023-01-28T06:47:29;98986.22;;;-12.05;55.11
63700;BME280;49845;47.130;142.766;2023-01-28T06:50:25;98990.44;;;-12.04;54.64
63700;BME280;49845;47.130;142.766;2023-01-28T06:53:20;98991.56;;;-12.30;53.47
63700;BME280;49845;47.130;142.766;2023-01-28T06:56:19;98989.75;;;-12.49;53.39
63700;BME280;49845;47.130;142.766;2023-01-28T06:59:17;98986.13;;;-12.54;54.11
63700;BME280;49845;47.130;142.766;2023-01-28T07:01:55;98980.41;;;-12.67;53.91
63700;BME280;49845;47.130;142.766;2023-01-28T07:04:33;98994.84;;;-12.79;54.08
63700;BME280;49845;47.130;142.766;2023-01-28T07:07:14;98988.53;;;-12.87;54.41
63700;BME280;49845;47.130;142.766;2023-01-28T07:09:52;98984.47;;;-13.00;55.30
63700;BME280;49845;47.130;142.766;2023-01-28T07:12:32;98984.28;;;-13.18;55.66
63700;BME280;49845;47.130;142.766;2023-01-28T07:15:10;98996.41;;;-13.26;55.95
63700;BME280;49845;47.130;142.766;2023-01-28T07:17:48;98994.00;;;-13.24;56.05
63700;BME280;49845;47.130;142.766;2023-01-28T07:20:26;99003.06;;;-13.28;55.74
63700;BME280;49845;47.130;142.766;2023-01-28T07:23:01;99008.25;;;-13.39;56.20
63700;BME280;49845;47.130;142.766;2023-01-28T07:25:35;99006.66;;;-13.67;55.63
63700;BME280;49845;47.130;142.766;2023-01-28T07:28:13;99005.53;;;-13.85;57.01
63700;BME280;49845;47.130;142.766;2023-01-28T07:30:51;99006.00;;;-14.06;57.78
63700;BME280;49845;47.130;142.766;2023-01-28T07:33:24;98948.56;;;-14.58;58.64
63700;BME280;49845;47.130;142.766;2023-01-28T07:35:57;99002.59;;;-14.21;60.15
63700;BME280;49845;47.130;142.766;2023-01-28T07:38:30;99004.16;;;-14.37;60.67
63700;BME280;49845;47.130;142.766;2023-01-28T07:41:02;98998.03;;;-14.55;61.16
63700;BME280;49845;47.130;142.766;2023-01-28T07:43:37;98999.63;;;-14.97;61.13
63700;BME280;49845;47.130;142.766;2023-01-28T07:46:11;99001.47;;;-15.33;62.61
63700;BME280;49845;47.130;142.766;2023-01-28T07:48:44;99008.72;;;-15.62;63.75
63700;BME280;49845;47.130;142.766;2023-01-28T07:51:18;99014.66;;;-15.87;64.80
63700;BME280;49845;47.130;142.766;2023-01-28T07:53:52;99010.28;;;-16.15;65.29
63700;BME280;49845;47.130;142.766;2023-01-28T07:56:25;99010.22;;;-16.28;65.91
63700;BME280;49845;47.130;142.766;2023-01-28T07:59:04;99005.00;;;-16.31;66.31
63700;BME280;49845;47.130;142.766;2023-01-28T08:02:14;98973.53;;;-16.53;67.48
63700;BME280;49845;47.130;142.766;2023-01-28T08:06:16;99011.34;;;-16.36;68.96
63700;BME280;49845;47.130;142.766;2023-01-28T08:09:44;99010.28;;;-16.52;70.47
63700;BME280;49845;47.130;142.766;2023-01-28T08:12:52;99009.44;;;-16.64;73.11
63700;BME280;49845;47.130;142.766;2023-01-28T08:15:25;98981.88;;;-17.01;73.49
63700;BME280;49845;47.130;142.766;2023-01-28T08:17:58;98990.56;;;-16.96;73.43
63700;BME280;49845;47.130;142.766;2023-01-28T08:20:32;99023.31;;;-16.67;73.62
63700;BME280;49845;47.130;142.766;2023-01-28T08:23:10;99012.78;;;-16.63;73.87
63700;BME280;49845;47.130;142.766;2023-01-28T08:25:44;99022.00;;;-16.50;74.52
63700;BME280;49845;47.130;142.766;2023-01-28T08:28:18;99036.81;;;-16.54;74.23
63700;BME280;49845;47.130;142.766;2023-01-28T08:31:00;99008.16;;;-16.82;73.93
63700;BME280;49845;47.130;142.766;2023-01-28T08:33:34;99042.72;;;-16.88;73.87
63700;BME280;49845;47.130;142.766;2023-01-28T08:36:09;99041.28;;;-17.08;73.53
63700;BME280;49845;47.130;142.766;2023-01-28T08:38:46;99042.88;;;-17.32;73.72
63700;BME280;49845;47.130;142.766;2023-01-28T08:41:24;99038.53;;;-17.47;74.07
63700;BME280;49845;47.130;142.766;2023-01-28T08:43:57;99041.31;;;-17.54;74.26
63700;BME280;49845;47.130;142.766;2023-01-28T08:46:33;99007.41;;;-17.86;74.47
63700;BME280;49845;47.130;142.766;2023-01-28T08:49:07;98977.84;;;-18.03;74.66
63700;BME280;49845;47.130;142.766;2023-01-28T08:51:40;99049.06;;;-17.73;74.49
63700;BME280;49845;47.130;142.766;2023-01-28T08:54:14;99042.63;;;-17.93;74.62
63700;BME280;49845;47.130;142.766;2023-01-28T08:56:48;99047.09;;;-17.89;74.77
63700;BME280;49845;47.130;142.766;2023-01-28T08:59:22;99000.16;;;-18.05;74.76
63700;BME280;49845;47.130;142.766;2023-01-28T09:01:59;99048.72;;;-17.77;74.57
63700;BME280;49845;47.130;142.766;2023-01-28T09:04:34;99059.91;;;-17.84;74.38
63700;BME280;49845;47.130;142.766;2023-01-28T09:07:09;99057.06;;;-17.89;74.54
63700;BME280;49845;47.130;142.766;2023-01-28T09:09:42;99049.66;;;-17.99;74.34
63700;BME280;49845;47.130;142.766;2023-01-28T09:12:15;99045.94;;;-18.04;74.74
63700;BME280;49845;47.130;142.766;2023-01-28T09:14:48;99051.16;;;-18.01;74.69
63700;BME280;49845;47.130;142.766;2023-01-28T09:17:23;99048.13;;;-17.97;75.25
63700;BME280;49845;47.130;142.766;2023-01-28T09:19:56;99050.97;;;-17.92;75.73
63700;BME280;49845;47.130;142.766;2023-01-28T09:22:29;99052.53;;;-17.83;75.94
63700;BME280;49845;47.130;142.766;2023-01-28T09:25:02;99057.88;;;-17.66;77.46
63700;BME280;49845;47.130;142.766;2023-01-28T09:27:36;99046.84;;;-17.58;77.28
63700;BME280;49845;47.130;142.766;2023-01-28T09:30:10;99056.28;;;-17.54;76.98
63700;BME280;49845;47.130;142.766;2023-01-28T09:32:50;99060.53;;;-17.53;76.73
63700;BME280;49845;47.130;142.766;2023-01-28T09:35:24;99063.50;;;-17.47;76.99
63700;BME280;49845;47.130;142.766;2023-01-28T09:37:58;99057.41;;;-17.38;76.93
63700;BME280;49845;47.130;142.766;2023-01-28T09:40:35;99052.84;;;-17.32;76.65
63700;BME280;49845;47.130;142.766;2023-01-28T09:43:23;99058.72;;;-17.44;75.83
63700;BME280;49845;47.130;142.766;2023-01-28T09:46:01;99049.63;;;-17.65;75.43
63700;BME280;49845;47.130;142.766;2023-01-28T09:48:39;99059.09;;;-17.61;75.68
63700;BME280;49845;47.130;142.766;2023-01-28T09:51:23;99065.81;;;-17.60;76.08
63700;BME280;49845;47.130;142.766;2023-01-28T09:54:01;99052.91;;;-17.54;76.72
63700;BME280;49845;47.130;142.766;2023-01-28T09:56:38;99052.28;;;-17.52;76.15
63700;BME280;49845;47.130;142.766;2023-01-28T09:59:17;99055.59;;;-17.63;75.92
63700;BME280;49845;47.130;142.766;2023-01-28T10:01:56;99070.84;;;-17.48;75.98
63700;BME280;49845;47.130;142.766;2023-01-28T10:04:47;99078.22;;;-17.50;75.66
63700;BME280;49845;47.130;142.766;2023-01-28T10:07:35;99072.09;;;-17.65;75.10
63700;BME280;49845;47.130;142.766;2023-01-28T10:10:13;99075.66;;;-17.73;75.31
63700;BME280;49845;47.130;142.766;2023-01-28T10:13:01;99070.00;;;-17.83;75.28
63700;BME280;49845;47.130;142.766;2023-01-28T10:16:05;99076.59;;;-17.83;75.47
63700;BME280;49845;47.130;142.766;2023-01-28T10:18:44;99074.66;;;-17.75;75.78
63700;BME280;49845;47.130;142.766;2023-01-28T10:21:23;99030.97;;;-18.04;76.11
63700;BME280;49845;47.130;142.766;2023-01-28T10:24:00;99031.91;;;-17.92;75.83
63700;BME280;49845;47.130;142.766;2023-01-28T10:26:35;99066.22;;;-17.66;75.92
63700;BME280;49845;47.130;142.766;2023-01-28T10:29:13;99034.69;;;-17.99;74.95
63700;BME280;49845;47.130;142.766;2023-01-28T10:31:52;99031.38;;;-18.10;75.60
63700;BME280;49845;47.130;142.766;2023-01-28T10:34:24;99064.34;;;-18.02;75.28
63700;BME280;49845;47.130;142.766;2023-01-28T10:36:57;99088.91;;;-17.96;75.59
63700;BME280;49845;47.130;142.766;2023-01-28T10:39:33;99095.34;;;-18.10;75.90
63700;BME280;49845;47.130;142.766;2023-01-28T10:42:15;98965.34;;;-18.81;76.10
63700;BME280;49845;47.130;142.766;2023-01-28T10:44:49;99090.84;;;-18.04;76.57
63700;BME280;49845;47.130;142.766;2023-01-28T10:47:29;99082.59;;;-18.03;76.52
63700;BME280;49845;47.130;142.766;2023-01-28T10:50:04;99096.28;;;-17.98;76.16
63700;BME280;49845;47.130;142.766;2023-01-28T10:52:38;99098.00;;;-17.97;76.05
63700;BME280;49845;47.130;142.766;2023-01-28T10:55:14;99070.41;;;-18.10;76.14
63700;BME280;49845;47.130;142.766;2023-01-28T10:57:46;99094.28;;;-18.02;76.46
63700;BME280;49845;47.130;142.766;2023-01-28T11:00:26;99074.81;;;-17.96;76.72
63700;BME280;49845;47.130;142.766;2023-01-28T11:02:59;99098.72;;;-17.88;75.91
63700;BME280;49845;47.130;142.766;2023-01-28T11:05:31;99100.84;;;-17.92;76.07
63700;BME280;49845;47.130;142.766;2023-01-28T11:08:09;98985.78;;;-18.63;76.27
63700;BME280;49845;47.130;142.766;2023-01-28T11:10:43;99108.81;;;-17.86;76.49
63700;BME280;49845;47.130;142.766;2023-01-28T11:13:17;99099.69;;;-17.86;76.46
63700;BME280;49845;47.130;142.766;2023-01-28T11:15:50;99099.19;;;-17.81;76.25
63700;BME280;49845;47.130;142.766;2023-01-28T11:18:25;99056.31;;;-18.10;76.07
63700;BME280;49845;47.130;142.766;2023-01-28T11:20:58;99098.63;;;-17.77;76.22
63700;BME280;49845;47.130;142.766;2023-01-28T11:23:33;99082.69;;;-17.79;76.29
63700;BME280;49845;47.130;142.766;2023-01-28T11:26:12;99105.03;;;-17.81;75.44
63700;BME280;49845;47.130;142.766;2023-01-28T11:28:46;99110.66;;;-17.84;75.77
63700;BME280;49845;47.130;142.766;2023-01-28T11:31:19;99101.50;;;-17.95;75.15
63700;BME280;49845;47.130;142.766;2023-01-28T11:33:54;99114.19;;;-18.14;74.67
63700;BME280;49845;47.130;142.766;2023-01-28T11:36:28;99106.53;;;-18.37;74.36
63700;BME280;49845;47.130;142.766;2023-01-28T11:39:15;99090.59;;;-18.72;74.26
63700;BME280;49845;47.130;142.766;2023-01-28T11:41:49;99096.38;;;-18.83;74.75
63700;BME280;49845;47.130;142.766;2023-01-28T11:44:22;99090.66;;;-18.92;74.92
63700;BME280;49845;47.130;142.766;2023-01-28T11:47:11;99120.22;;;-18.75;75.54
63700;BME280;49845;47.130;142.766;2023-01-28T11:50:00;99122.22;;;-18.71;75.77
63700;BME280;49845;47.130;142.766;2023-01-28T11:52:42;99101.59;;;-18.80;75.63
63700;BME280;49845;47.130;142.766;2023-01-28T11:56:05;99115.50;;;-18.72;75.48
63700;BME280;49845;47.130;142.766;2023-01-28T11:58:47;99110.06;;;-18.78;75.28
63700;BME280;49845;47.130;142.766;2023-01-28T12:01:30;99127.50;;;-18.88;75.22
63700;BME280;49845;47.130;142.766;2023-01-28T12:04:19;99118.28;;;-18.99;75.18
63700;BME280;49845;47.130;142.766;2023-01-28T12:07:00;99124.78;;;-19.22;75.10
63700;BME280;49845;47.130;142.766;2023-01-28T12:09:41;99123.81;;;-19.13;75.22
63700;BME280;49845;47.130;142.766;2023-01-28T12:15:25;99115.81;;;-19.30;74.95
63700;BME280;49845;47.130;142.766;2023-01-28T12:18:13;99118.06;;;-19.33;75.38
63700;BME280;49845;47.130;142.766;2023-01-28T12:20:54;99111.09;;;-19.37;75.61
63700;BME280;49845;47.130;142.766;2023-01-28T12:23:43;99104.00;;;-19.53;75.22
63700;BME280;49845;47.130;142.766;2023-01-28T12:26:25;99113.56;;;-19.58;75.15
63700;BME280;49845;47.130;142.766;2023-01-28T12:29:17;99127.50;;;-19.70;75.25
63700;BME280;49845;47.130;142.766;2023-01-28T12:32:03;99120.91;;;-19.80;75.56
63700;BME280;49845;47.130;142.766;2023-01-28T12:34:57;99095.59;;;-20.15;75.65
63700;BME280;49845;47.130;142.766;2023-01-28T12:37:44;99120.00;;;-19.90;75.59
63700;BME280;49845;47.130;142.766;2023-01-28T12:40:32;99121.00;;;-19.98;76.20
63700;BME280;49845;47.130;142.766;2023-01-28T12:43:10;99107.28;;;-20.14;76.25
63700;BME280;49845;47.130;142.766;2023-01-28T12:45:50;99126.81;;;-20.08;75.83
63700;BME280;49845;47.130;142.766;2023-01-28T12:48:28;99071.13;;;-20.50;75.75
63700;BME280;49845;47.130;142.766;2023-01-28T12:51:06;99133.25;;;-20.10;76.20
63700;BME280;49845;47.130;142.766;2023-01-28T12:53:44;99131.66;;;-19.99;76.32
63700;BME280;49845;47.130;142.766;2023-01-28T12:56:18;99130.44;;;-19.94;76.22
63700;BME280;49845;47.130;142.766;2023-01-28T12:58:54;99132.19;;;-19.93;76.07
63700;BME280;49845;47.130;142.766;2023-01-28T13:01:34;99125.13;;;-19.89;76.13
63700;BME280;49845;47.130;142.766;2023-01-28T13:04:11;99057.06;;;-20.20;76.40
63700;BME280;49845;47.130;142.766;2023-01-28T13:06:46;99110.53;;;-19.94;75.89
63700;BME280;49845;47.130;142.766;2023-01-28T13:09:21;99134.47;;;-19.86;75.67
63700;BME280;49845;47.130;142.766;2023-01-28T13:11:57;99132.44;;;-19.90;75.39
63700;BME280;49845;47.130;142.766;2023-01-28T13:14:33;99132.38;;;-20.11;74.80
63700;BME280;49845;47.130;142.766;2023-01-28T13:17:22;99139.53;;;-20.24;74.68
63700;BME280;49845;47.130;142.766;2023-01-28T13:19:55;99132.25;;;-20.41;74.54
63700;BME280;49845;47.130;142.766;2023-01-28T13:22:30;99136.69;;;-20.58;74.61
63700;BME280;49845;47.130;142.766;2023-01-28T13:25:21;99098.88;;;-20.93;74.50
63700;BME280;49845;47.130;142.766;2023-01-28T13:27:58;99128.47;;;-20.86;75.00